Terminal Aerodrome Forecast
Issued by NWS

Home | Current Version | Previous Version | Graphics & Text | Print | Product List | Glossary On
Versions: 1 2 3 4 5 6 7 8 9 10 11 12 13 14 15 16 17 18 19 20 21
000
FTUS41 KCLE 191606 AAB
TAFFDY
TAF AMD
KFDY 191606Z 1916/2012 15005KT P6SM VCTS SCT015 OVC035CB
      TEMPO 1916/1918 2SM -TSRA BKN012CB OVC025
     FM191800 24005KT P6SM VCSH OVC035
     FM192100 VRB03KT P6SM BKN050
     FM200600 VRB03KT P6SM BKN015=

USA.gov is the U.S. government's official web portal to all federal, state and local government web resources and services.